Time;durP1;ratioP1;P1;durP2;ratioP2;P2;SDS_P1;SDS_P2;PMS_P1;PMS_P2;Temp;Humidity;BMP_temperature;BMP_pressure;BME280_temperature;BME280_humidity;BME280_pressure;Samples;Min_cycle;Max_cycle;Signal;HPM_P1;HPM_P2
2023/05/17 00:00:41;;;;;;;0.40;0.40;;;;;;;13.67;100.00;98781.81;5134604;27;20091;-62
2023/05/17 00:03:10;;;;;;;0.65;0.57;;;;;;;13.70;100.00;98794.56;5134704;28;20122;-62
2023/05/17 00:05:39;;;;;;;0.47;0.47;;;;;;;13.71;100.00;98791.09;5134466;28;20565;-62
2023/05/17 00:08:08;;;;;;;1.65;1.52;;;;;;;13.72;100.00;98791.06;5134467;28;20118;-62
2023/05/17 00:10:37;;;;;;;1.00;0.87;;;;;;;13.76;100.00;98789.25;5134442;28;20035;-62
2023/05/17 00:13:06;;;;;;;3.73;1.27;;;;;;;13.75;100.00;98777.34;5117677;27;20278;-62
2023/05/17 00:15:37;;;;;;;1.88;0.88;;;;;;;13.75;100.00;98777.34;5138697;27;20070;-62
2023/05/17 00:18:06;;;;;;;0.60;0.60;;;;;;;13.78;100.00;98782.34;5138788;27;20051;-62
2023/05/17 00:20:35;;;;;;;0.65;0.65;;;;;;;13.80;100.00;98785.72;5138618;27;20065;-62
2023/05/17 00:23:04;;;;;;;0.47;0.47;;;;;;;13.77;100.00;98775.56;5138521;27;20035;-62
2023/05/17 00:25:33;;;;;;;0.82;0.80;;;;;;;13.83;100.00;98777.94;5138890;27;20446;-62
2023/05/17 00:28:02;;;;;;;0.47;0.47;;;;;;;13.83;100.00;98772.81;5138459;27;20039;-62
2023/05/17 00:30:30;;;;;;;0.40;0.40;;;;;;;13.83;99.53;98768.53;5120220;27;20046;-62
2023/05/17 00:33:01;;;;;;;0.65;0.60;;;;;;;13.86;100.00;98770.16;5138262;27;20039;-62
2023/05/17 00:35:30;;;;;;;0.47;0.47;;;;;;;13.88;99.89;98769.22;5120110;27;20039;-62
2023/05/17 00:37:58;;;;;;;0.40;0.40;;;;;;;13.91;99.40;98765.75;5116510;28;20572;-62
2023/05/17 00:40:28;;;;;;;0.57;0.57;;;;;;;13.92;99.37;98764.84;5117785;28;20276;-62
2023/05/17 00:42:56;;;;;;;2.23;2.03;;;;;;;13.92;99.49;98755.44;5117991;27;20088;-62
2023/05/17 00:45:25;;;;;;;0.50;0.50;;;;;;;13.92;99.10;98759.72;5116623;28;20378;-62
2023/05/17 00:47:54;;;;;;;0.50;0.50;;;;;;;13.94;98.99;98765.66;5117626;28;20533;-62
2023/05/17 00:50:25;;;;;;;0.40;0.40;;;;;;;13.93;98.86;98771.66;5116317;28;20044;-62
2023/05/17 00:52:55;;;;;;;0.60;0.60;;;;;;;13.86;98.74;98753.06;5117521;28;20134;-61
2023/05/17 00:55:24;;;;;;;4.82;1.42;;;;;;;13.95;98.42;98765.59;5116529;28;20036;-62
2023/05/17 00:57:54;;;;;;;0.50;0.50;;;;;;;13.93;98.34;98754.56;5117349;28;20047;-62
2023/05/17 01:00:23;;;;;;;;;;;;;;;13.91;97.91;98758.06;5118046;28;20051;-62
2023/05/17 01:02:52;;;;;;;0.30;0.30;;;;;;;13.92;97.84;98767.41;5116276;28;19920;-62
2023/05/17 01:05:21;;;;;;;0.50;0.50;;;;;;;13.92;97.59;98767.41;5116207;28;20385;-62
2023/05/17 01:07:51;;;;;;;0.70;0.70;;;;;;;13.93;97.86;98761.41;5117170;28;20047;-62
2023/05/17 01:10:21;;;;;;;0.88;0.88;;;;;;;13.94;97.80;98761.34;5117194;28;20288;-62
2023/05/17 01:13:03;;;;;;;0.63;0.63;;;;;;;13.94;97.36;98757.97;5116063;28;20067;-62
2023/05/17 01:15:45;;;;;;;1.10;0.98;;;;;;;13.92;97.08;98765.69;5117437;28;20470;-62
2023/05/17 01:18:22;;;;;;;0.85;0.85;;;;;;;13.92;97.03;98780.22;5116993;28;20043;-60
2023/05/17 01:20:55;;;;;;;0.60;0.60;;;;;;;13.90;96.70;98782.00;5117574;28;20053;-61
2023/05/17 01:23:44;;;;;;;1.05;1.00;;;;;;;13.90;96.95;98799.97;5116975;28;20055;-61
2023/05/17 01:26:21;;;;;;;0.55;0.55;;;;;;;13.91;96.67;98778.56;5116107;28;20130;-62
2023/05/17 01:28:57;;;;;;;0.73;0.73;;;;;;;13.89;96.86;98775.22;5117228;28;20044;-62
2023/05/17 01:31:28;;;;;;;0.52;0.52;;;;;;;13.89;96.81;98785.47;5116781;27;20580;-62
2023/05/17 01:33:57;;;;;;;1.08;0.98;;;;;;;13.83;97.07;98791.59;5115661;28;20393;-62
2023/05/17 01:36:28;;;;;;;0.40;0.40;;;;;;;13.85;97.15;98794.13;5116647;28;20532;-62
2023/05/17 01:38:59;;;;;;;0.53;0.53;;;;;;;13.84;96.86;98792.44;5115126;28;20101;-62
2023/05/17 01:41:34;;;;;;;0.45;0.45;;;;;;;13.84;97.34;98812.97;5116611;28;20509;-62
2023/05/17 01:44:13;;;;;;;0.30;0.30;;;;;;;13.83;97.06;98811.28;5116543;28;20047;-62
2023/05/17 01:46:43;;;;;;;0.88;0.88;;;;;;;13.85;97.33;98827.47;5116382;28;20104;-63
2023/05/17 01:49:18;;;;;;;1.30;1.08;;;;;;;13.86;97.04;98822.31;5116485;28;20040;-62
2023/05/17 01:51:51;;;;;;;0.40;0.40;;;;;;;13.87;97.50;98818.00;5116676;28;20055;-62
2023/05/17 01:54:28;;;;;;;3.95;0.75;;;;;;;13.83;97.40;98816.41;5116288;28;20040;-62
2023/05/17 01:57:00;;;;;;;0.70;0.70;;;;;;;13.89;97.24;98813.69;5115328;28;20443;-62
2023/05/17 01:59:34;;;;;;;0.40;0.40;;;;;;;13.88;97.44;98819.69;5116208;28;20100;-62
2023/05/17 02:02:07;;;;;;;1.10;0.77;;;;;;;13.69;96.98;98795.44;5115283;28;20051;-62
2023/05/17 02:04:37;;;;;;;0.55;0.55;;;;;;;13.89;97.47;98821.38;5116145;28;20100;-62
2023/05/17 02:07:06;;;;;;;0.43;0.43;;;;;;;13.88;97.51;98817.97;5116100;28;20058;-62
2023/05/17 02:09:34;;;;;;;0.60;0.60;;;;;;;13.88;97.56;98817.13;5116352;28;20051;-62
2023/05/17 02:12:04;;;;;;;0.85;0.80;;;;;;;13.89;97.20;98811.13;5115179;28;20112;-62
2023/05/17 02:14:36;;;;;;;1.02;0.90;;;;;;;13.88;97.00;98817.97;5115106;28;20401;-62
2023/05/17 02:17:06;;;;;;;0.80;0.80;;;;;;;13.89;97.38;98826.50;5114721;28;20074;-62
2023/05/17 02:19:35;;;;;;;4.35;1.63;;;;;;;13.89;96.70;98823.94;5114929;28;20437;-62
2023/05/17 02:22:04;;;;;;;0.40;0.40;;;;;;;13.90;97.14;98823.03;5114652;28;20092;-62
2023/05/17 02:24:33;;;;;;;0.43;0.43;;;;;;;13.90;97.20;98817.91;5114447;28;20066;-62
2023/05/17 02:27:02;;;;;;;0.37;0.37;;;;;;;13.93;96.77;98822.97;5115630;28;20054;-62
2023/05/17 02:29:32;;;;;;;0.77;0.73;;;;;;;13.85;97.08;98812.91;5114726;28;20051;-62
2023/05/17 02:32:02;;;;;;;0.40;0.40;;;;;;;13.89;97.06;98817.06;5115874;28;20508;-62
2023/05/17 02:34:31;;;;;;;0.82;0.73;;;;;;;13.89;96.67;98821.38;5115605;28;20052;-62
2023/05/17 02:37:00;;;;;;;0.47;0.47;;;;;;;13.90;96.96;98820.47;5115044;28;20063;-62
2023/05/17 02:39:29;;;;;;;0.40;0.40;;;;;;;13.88;97.02;98819.69;5135123;27;20287;-62
2023/05/17 02:41:58;;;;;;;0.40;0.40;;;;;;;13.85;96.76;98819.75;5135958;27;20067;-62
2023/05/17 02:44:27;;;;;;;0.30;0.30;;;;;;;13.88;97.00;98817.13;5135822;27;20463;-62
2023/05/17 02:46:55;;;;;;;0.40;0.40;;;;;;;13.88;96.94;98819.69;5136091;27;20045;-62
2023/05/17 02:49:26;;;;;;;0.50;0.50;;;;;;;13.90;96.73;98830.75;5135742;27;20067;-62
2023/05/17 02:51:55;;;;;;;0.82;0.82;;;;;;;13.90;96.38;98825.63;5135688;27;20126;-62
2023/05/17 02:54:24;;;;;;;0.53;0.53;;;;;;;13.92;96.48;98831.53;5117660;27;20039;-62
2023/05/17 02:56:53;;;;;;;1.05;1.02;;;;;;;13.94;96.66;98834.94;5117607;27;20040;-62
2023/05/17 02:59:22;;;;;;;0.90;0.90;;;;;;;13.92;96.59;98836.66;5117141;27;20054;-62
2023/05/17 03:01:51;;;;;;;0.73;0.73;;;;;;;13.91;96.04;98845.25;5135777;27;20043;-62
2023/05/17 03:04:20;;;;;;;0.47;0.47;;;;;;;13.91;96.21;98842.69;5117169;27;20044;-62
2023/05/17 03:06:50;;;;;;;1.73;0.88;;;;;;;13.91;96.42;98838.41;5135659;27;20335;-62
2023/05/17 03:09:20;;;;;;;1.55;1.45;;;;;;;13.93;95.97;98848.63;5117384;27;20073;-62
2023/05/17 03:11:51;;;;;;;0.50;0.50;;;;;;;13.93;96.27;98853.75;5135572;27;20411;-62
2023/05/17 03:14:27;;;;;;;0.57;0.57;;;;;;;13.94;96.06;98860.56;5135607;27;20489;-62
2023/05/17 03:16:56;;;;;;;0.40;0.40;;;;;;;13.96;95.81;98854.50;5117263;27;20035;-62
2023/05/17 03:19:25;;;;;;;0.50;0.50;;;;;;;13.96;95.24;98859.63;5135313;27;20039;-62
2023/05/17 03:21:56;;;;;;;1.27;1.15;;;;;;;13.96;95.19;98862.19;5117214;27;20043;-62
2023/05/17 03:24:26;;;;;;;0.43;0.43;;;;;;;13.93;94.91;98858.88;5135510;27;20074;-62
2023/05/17 03:26:55;;;;;;;0.40;0.40;;;;;;;13.99;94.91;98868.97;5116816;27;20558;-62
2023/05/17 03:29:24;;;;;;;0.60;0.60;;;;;;;13.99;94.76;98869.81;5135034;27;20043;-62
2023/05/17 03:31:53;;;;;;;0.40;0.40;;;;;;;14.00;94.80;98870.66;5134921;27;20050;-62
2023/05/17 03:34:23;;;;;;;0.50;0.50;;;;;;;13.99;94.27;98868.97;5116606;27;20051;-61
2023/05/17 03:36:52;;;;;;;0.68;0.68;;;;;;;14.01;94.38;98877.50;5116598;27;20038;-62
2023/05/17 03:39:22;;;;;;;0.97;0.63;;;;;;;14.01;94.43;98887.75;5112877;28;20056;-62
2023/05/17 03:41:51;;;;;;;0.52;0.52;;;;;;;13.99;94.19;98881.78;5113084;28;20054;-62
2023/05/17 03:44:22;;;;;;;0.60;0.60;;;;;;;14.00;93.75;98894.59;5113308;28;20059;-62
2023/05/17 03:46:52;;;;;;;12.80;1.00;;;;;;;14.00;93.43;98902.28;5114196;28;20084;-62
2023/05/17 03:49:23;;;;;;;0.50;0.50;;;;;;;14.01;93.22;98898.00;5113874;28;20047;-62
2023/05/17 03:51:54;;;;;;;0.75;0.75;;;;;;;14.00;93.00;98907.44;5113018;28;20040;-62
2023/05/17 03:54:24;;;;;;;0.50;0.50;;;;;;;13.99;92.81;98905.72;5112929;28;20126;-62
2023/05/17 03:56:53;;;;;;;0.40;0.40;;;;;;;13.98;92.74;98922.03;5114497;28;20139;-62
2023/05/17 03:59:22;;;;;;;0.67;0.67;;;;;;;13.95;92.41;98921.25;5112826;28;20036;-63
2023/05/17 04:01:51;;;;;;;0.55;0.55;;;;;;;13.97;92.38;98916.91;5112875;28;20059;-62
2023/05/17 04:04:20;;;;;;;0.73;0.73;;;;;;;13.95;91.84;98923.81;5113987;28;20066;-62
2023/05/17 04:06:49;;;;;;;0.70;0.70;;;;;;;13.94;91.90;98925.53;5113955;28;20043;-62
2023/05/17 04:09:18;;;;;;;0.80;0.80;;;;;;;13.95;91.73;98928.94;5114387;28;20035;-62
2023/05/17 04:11:48;;;;;;;;;;;;;;;13.93;91.20;98935.84;5114303;28;20109;-62
2023/05/17 04:14:18;;;;;;;0.75;0.73;;;;;;;13.93;91.23;98940.97;5113047;28;19962;-62
2023/05/17 04:16:47;;;;;;;0.60;0.60;;;;;;;13.94;90.86;98933.22;5112814;28;20071;-62
2023/05/17 04:19:16;;;;;;;0.40;0.40;;;;;;;13.94;91.03;98948.63;5114209;28;20044;-62
2023/05/17 04:21:45;;;;;;;0.50;0.50;;;;;;;13.91;90.95;98945.31;5112881;28;20481;-62
2023/05/17 04:24:14;;;;;;;0.40;0.40;;;;;;;13.93;90.69;98949.50;5112855;28;20036;-62
2023/05/17 04:26:43;;;;;;;0.40;0.40;;;;;;;13.94;90.46;98953.75;5112571;28;20036;-62
2023/05/17 04:29:17;;;;;;;0.90;0.90;;;;;;;13.94;90.41;98960.63;5114128;28;20044;-61
2023/05/17 04:31:48;;;;;;;0.40;0.40;;;;;;;13.95;90.33;98952.03;5114347;28;20071;-61
2023/05/17 04:34:18;;;;;;;0.55;0.55;;;;;;;13.95;89.71;98950.31;5113803;28;20059;-62
2023/05/17 04:36:47;;;;;;;0.50;0.50;;;;;;;13.95;89.52;98955.44;5112908;28;20444;-62
2023/05/17 04:39:16;;;;;;;0.50;0.50;;;;;;;13.95;89.61;98967.44;5131504;28;20063;-62
2023/05/17 04:41:45;;;;;;;0.50;0.50;;;;;;;13.95;89.14;98970.84;5134387;28;20039;-62
2023/05/17 04:44:19;;;;;;;0.40;0.40;;;;;;;13.96;88.30;98966.56;5134726;28;20378;-62
2023/05/17 04:46:48;;;;;;;0.57;0.57;;;;;;;13.96;88.67;98966.56;5116145;28;20035;-62
2023/05/17 04:49:17;;;;;;;0.50;0.50;;;;;;;13.97;88.48;98968.22;5115802;28;20047;-62
2023/05/17 04:51:46;;;;;;;0.30;0.30;;;;;;;13.99;88.45;98969.88;5116113;28;20039;-62
2023/05/17 04:54:15;;;;;;;0.50;0.50;;;;;;;13.96;88.11;98967.38;5115797;28;20046;-62
2023/05/17 04:56:44;;;;;;;0.70;0.70;;;;;;;13.99;88.50;98967.31;5115938;28;20671;-62
2023/05/17 04:59:22;;;;;;;0.52;0.52;;;;;;;14.00;88.15;98963.03;5135768;27;20058;-62
2023/05/17 05:01:51;;;;;;;0.47;0.47;;;;;;;14.03;87.92;98973.22;5119578;27;20071;-62
2023/05/17 05:04:20;;;;;;;0.60;0.60;;;;;;;14.00;88.04;98968.16;5119674;27;20032;-62
2023/05/17 05:06:50;;;;;;;0.40;0.40;;;;;;;13.98;87.88;98964.78;5119447;27;20130;-62
2023/05/17 05:09:20;;;;;;;0.30;0.30;;;;;;;14.02;88.06;98974.09;5138032;27;20126;-63
2023/05/17 05:11:51;;;;;;;0.47;0.47;;;;;;;13.99;87.69;98974.16;5119303;27;20070;-63
2023/05/17 05:14:22;;;;;;;0.40;0.40;;;;;;;14.00;87.50;98986.09;5119615;27;20523;-63
2023/05/17 05:16:51;;;;;;;0.85;0.68;;;;;;;13.99;87.35;98997.25;5137643;27;20075;-63
2023/05/17 05:19:20;;;;;;;0.43;0.43;;;;;;;13.99;87.01;98987.81;5137791;27;20043;-63
2023/05/17 05:21:52;;;;;;;0.40;0.40;;;;;;;14.00;87.46;99002.34;5137402;27;20047;-63
2023/05/17 05:24:20;;;;;;;0.30;0.30;;;;;;;14.00;87.21;98998.94;5137735;27;20130;-62
2023/05/17 05:26:49;;;;;;;0.30;0.30;;;;;;;14.01;87.03;99005.78;5137361;27;20082;-63
2023/05/17 05:29:20;;;;;;;0.57;0.57;;;;;;;14.01;86.98;99010.91;5137379;27;20047;-63
2023/05/17 05:31:50;;;;;;;0.47;0.47;;;;;;;14.02;86.41;99018.53;5118967;27;20035;-64
2023/05/17 05:34:19;;;;;;;0.40;0.40;;;;;;;14.03;86.50;99020.25;5118877;27;20130;-63
2023/05/17 05:36:49;;;;;;;0.40;0.40;;;;;;;14.05;86.00;99027.91;5137190;27;20047;-61
2023/05/17 05:39:18;;;;;;;0.40;0.40;;;;;;;14.08;86.11;99020.13;5136988;27;20065;-63
2023/05/17 05:41:47;;;;;;;0.40;0.40;;;;;;;14.11;85.98;99027.72;5119146;27;20036;-63
2023/05/17 05:44:16;;;;;;;0.40;0.40;;;;;;;14.12;85.79;99024.28;5119015;27;20046;-62
2023/05/17 05:46:45;;;;;;;0.32;0.32;;;;;;;14.09;85.54;99024.34;5136912;27;20096;-61
2023/05/17 05:49:16;;;;;;;;;;;;;;;14.06;85.34;99030.41;5137300;27;20126;-62
2023/05/17 05:51:45;;;;;;;0.40;0.40;;;;;;;14.04;85.17;99046.72;5118930;27;19968;-62
2023/05/17 05:54:15;;;;;;;0.43;0.43;;;;;;;14.05;85.15;99038.16;5118584;27;20039;-61
2023/05/17 05:56:43;;;;;;;0.30;0.30;;;;;;;14.06;84.84;99039.81;5137440;27;20282;-63
2023/05/17 05:59:14;;;;;;;0.40;0.40;;;;;;;14.07;85.12;99042.38;5137099;27;20059;-61
2023/05/17 06:01:45;;;;;;;0.30;0.30;;;;;;;14.10;84.71;99044.88;5118398;27;20047;-61
2023/05/17 06:04:14;;;;;;;0.40;0.40;;;;;;;14.12;84.62;99049.94;5136552;27;20035;-62
2023/05/17 06:06:44;;;;;;;0.40;0.40;;;;;;;14.15;84.37;99044.75;5137349;27;20119;-62
2023/05/17 06:09:13;;;;;;;0.40;0.40;;;;;;;14.13;84.25;99045.66;5136478;27;20069;-62
2023/05/17 06:11:42;;;;;;;0.30;0.30;;;;;;;14.20;84.21;99052.31;5135670;27;20047;-62
2023/05/17 06:14:11;;;;;;;0.40;0.40;;;;;;;14.24;83.69;99054.78;5136481;27;20084;-62
2023/05/17 06:16:40;;;;;;;0.30;0.30;;;;;;;14.27;83.72;99054.72;5136277;27;20046;-63
2023/05/17 06:19:09;;;;;;;0.33;0.33;;;;;;;14.30;83.88;99058.91;5136319;27;20031;-63
2023/05/17 06:21:37;;;;;;;3.35;1.65;;;;;;;14.31;83.52;99066.59;5136403;27;20039;-62
2023/05/17 06:24:08;;;;;;;0.53;0.53;;;;;;;14.34;83.34;99071.66;5136020;27;20043;-63
2023/05/17 06:26:37;;;;;;;0.45;0.45;;;;;;;14.35;83.10;99070.75;5136064;27;20043;-63
2023/05/17 06:29:09;;;;;;;0.30;0.30;;;;;;;14.38;83.17;99080.13;5136554;27;20043;-64
2023/05/17 06:31:38;;;;;;;0.40;0.40;;;;;;;14.35;82.85;99081.03;5136291;27;20051;-63
2023/05/17 06:34:07;;;;;;;0.50;0.50;;;;;;;14.37;83.06;99076.69;5135971;27;20035;-63
2023/05/17 06:36:36;;;;;;;0.40;0.40;;;;;;;14.37;82.96;99081.84;5136844;27;20137;-62
2023/05/17 06:39:08;;;;;;;0.65;0.65;;;;;;;14.37;83.08;99079.25;5135784;27;20572;-63
2023/05/17 06:41:36;;;;;;;0.40;0.40;;;;;;;14.37;83.04;99086.97;5135963;27;20043;-62
2023/05/17 06:44:05;;;;;;;0.40;0.40;;;;;;;14.38;83.35;99083.53;5136093;27;20088;-63
2023/05/17 06:46:35;;;;;;;0.50;0.50;;;;;;;14.38;83.18;99088.66;5135705;27;20051;-63
2023/05/17 06:49:03;;;;;;;0.30;0.30;;;;;;;14.37;83.05;99086.16;5136044;27;20027;-62
2023/05/17 06:51:35;;;;;;;0.40;0.40;;;;;;;14.38;83.21;99095.50;5135545;27;20043;-63
2023/05/17 06:54:04;;;;;;;0.40;0.40;;;;;;;14.31;82.88;99071.72;5118150;27;20065;-63
2023/05/17 06:56:34;;;;;;;0.40;0.40;;;;;;;14.39;82.99;99092.94;5135844;27;20492;-63
2023/05/17 07:02:12;;;;;;;;;;;;;;;14.36;83.23;99103.28;5140798;23;20042;-64
2023/05/17 07:04:42;;;;;;;0.30;0.30;;;;;;;14.34;83.22;99112.75;4864293;29;19924;-62
2023/05/17 07:07:11;;;;;;;0.60;0.60;;;;;;;14.32;83.04;99109.38;4862283;29;20037;-62
2023/05/17 07:09:40;;;;;;;0.50;0.50;;;;;;;14.31;82.66;99112.81;4862240;29;20380;-62
2023/05/17 07:12:10;;;;;;;0.40;0.40;;;;;;;14.32;82.80;99119.63;4862280;29;20046;-62
2023/05/17 07:14:39;;;;;;;0.30;0.30;;;;;;;14.30;82.47;99116.25;4861891;29;20060;-62
2023/05/17 07:17:08;;;;;;;0.40;0.40;;;;;;;14.34;82.46;99123.00;4862218;29;20138;-62
2023/05/17 07:19:37;;;;;;;0.50;0.50;;;;;;;14.38;82.76;99119.47;4861754;29;20094;-62
2023/05/17 07:22:06;;;;;;;0.32;0.32;;;;;;;14.40;82.35;99115.13;4862063;29;20101;-63
2023/05/17 07:24:35;;;;;;;0.40;0.40;;;;;;;14.42;82.56;99126.22;4862042;29;20041;-61
2023/05/17 07:27:04;;;;;;;0.40;0.40;;;;;;;14.45;82.36;99131.28;4861914;29;20066;-61
2023/05/17 07:29:34;;;;;;;0.40;0.40;;;;;;;14.49;81.96;99132.06;4861719;29;20045;-62
2023/05/17 07:32:04;;;;;;;0.80;0.60;;;;;;;14.49;81.59;99138.00;4861838;29;20056;-62
2023/05/17 07:34:32;;;;;;;0.55;0.55;;;;;;;14.49;81.19;99132.88;4860529;29;20061;-63
2023/05/17 07:37:01;;;;;;;0.47;0.47;;;;;;;14.46;81.07;99148.38;4863362;29;20040;-62
2023/05/17 07:39:30;;;;;;;0.70;0.70;;;;;;;14.45;80.76;99144.13;4873163;29;20112;-62
2023/05/17 07:41:59;;;;;;;0.40;0.40;;;;;;;14.45;80.45;99141.53;4879727;29;20132;-62
2023/05/17 07:44:28;;;;;;;0.40;0.40;;;;;;;14.40;80.34;99142.53;4879995;29;20096;-62
2023/05/17 07:46:58;;;;;;;0.50;0.50;;;;;;;14.38;80.41;99149.44;4866944;29;20106;-62
2023/05/17 07:49:27;;;;;;;0.50;0.50;;;;;;;14.38;79.62;99144.28;4861789;29;20214;-64
2023/05/17 07:51:56;;;;;;;0.30;0.30;;;;;;;14.39;79.62;99149.41;4861481;29;20053;-62
2023/05/17 07:54:27;;;;;;;0.30;0.30;;;;;;;14.38;79.69;99145.16;4861364;29;20109;-62
2023/05/17 07:56:58;;;;;;;1.17;0.68;;;;;;;14.37;79.20;99143.44;4861669;29;20050;-63
2023/05/17 07:59:28;;;;;;;0.40;0.40;;;;;;;14.37;78.86;99140.88;4861353;29;20057;-62
2023/05/17 08:01:58;;;;;;;0.60;0.60;;;;;;;14.36;78.97;99136.66;4861332;29;20128;-61
2023/05/17 08:04:27;;;;;;;0.60;0.60;;;;;;;14.34;78.61;99147.81;4878391;29;20108;-63
2023/05/17 08:06:56;;;;;;;0.40;0.40;;;;;;;14.30;78.07;99152.19;4880068;29;20432;-62
2023/05/17 08:09:25;;;;;;;0.60;0.60;;;;;;;14.32;78.29;99155.59;4880327;29;20088;-62
2023/05/17 08:11:54;;;;;;;0.60;0.60;;;;;;;14.35;78.13;99152.09;4879745;29;20049;-63
2023/05/17 08:14:24;;;;;;;0.52;0.52;;;;;;;14.27;77.54;99141.97;4872857;29;20045;-62
2023/05/17 08:16:53;;;;;;;0.40;0.40;;;;;;;14.33;77.20;99157.25;4861428;29;20052;-62
2023/05/17 08:19:25;;;;;;;0.65;0.65;;;;;;;14.20;77.24;99145.56;4861060;29;20523;-62
2023/05/17 08:21:55;;;;;;;0.52;0.52;;;;;;;14.24;76.59;99167.72;4861357;29;20133;-62
2023/05/17 08:24:23;;;;;;;0.47;0.47;;;;;;;14.15;76.71;99173.06;4861112;29;20046;-63
2023/05/17 08:26:53;;;;;;;0.63;0.63;;;;;;;14.18;76.87;99175.53;4861331;29;20400;-61
2023/05/17 08:29:21;;;;;;;;;;;;;;;14.22;76.81;99169.47;4861472;29;20041;-63
2023/05/17 08:31:51;;;;;;;0.50;0.50;;;;;;;14.19;76.97;99169.53;4861496;29;19931;-63
2023/05/17 08:34:20;;;;;;;0.40;0.40;;;;;;;14.15;76.35;99183.34;4863110;29;20045;-63
2023/05/17 08:36:52;;;;;;;0.52;0.52;;;;;;;14.07;76.02;99195.47;4864952;29;20046;-63
2023/05/17 08:39:21;;;;;;;0.40;0.40;;;;;;;14.02;76.18;99202.44;4864763;29;20072;-63
2023/05/17 08:41:50;;;;;;;0.50;0.50;;;;;;;13.89;76.46;99201.03;4864523;29;20038;-64
2023/05/17 08:44:20;;;;;;;0.30;0.30;;;;;;;13.95;76.65;99211.16;4864635;29;20120;-61
2023/05/17 08:46:52;;;;;;;0.50;0.50;;;;;;;13.92;76.36;99218.91;4863181;29;20412;-62
2023/05/17 08:49:24;;;;;;;0.40;0.40;;;;;;;13.87;76.26;99218.16;4864319;29;20049;-62
2023/05/17 08:51:55;;;;;;;0.40;0.40;;;;;;;13.84;76.27;99220.81;4864701;29;20067;-62
2023/05/17 08:54:24;;;;;;;0.35;0.35;;;;;;;13.83;76.38;99221.69;4864359;29;20046;-62
2023/05/17 08:56:58;;;;;;;0.32;0.32;;;;;;;13.81;76.63;99218.31;4863477;29;20069;-62
2023/05/17 08:59:32;;;;;;;0.60;0.60;;;;;;;13.70;76.46;99220.25;4864284;29;20053;-62
2023/05/17 09:02:02;;;;;;;0.40;0.40;;;;;;;13.62;76.92;99222.97;4864003;29;20050;-62
2023/05/17 09:04:31;;;;;;;0.30;0.30;;;;;;;13.56;77.47;99228.22;4864314;29;20053;-63
2023/05/17 09:07:02;;;;;;;;;;;;;;;13.51;77.79;99218.94;4864544;29;20042;-61
2023/05/17 09:09:31;;;;;;;0.40;0.40;;;;;;;13.47;78.21;99241.22;4864550;29;20063;-62
2023/05/17 09:12:01;;;;;;;0.60;0.60;;;;;;;13.46;78.33;99243.81;4864041;29;20101;-62
2023/05/17 09:14:34;;;;;;;1.27;0.60;;;;;;;13.38;78.96;99244.81;4864056;29;20046;-61
2023/05/17 09:17:03;;;;;;;0.40;0.40;;;;;;;13.30;79.02;99251.78;4863032;29;20053;-61
2023/05/17 09:19:32;;;;;;;0.40;0.40;;;;;;;13.22;79.52;99263.91;4864368;29;20058;-61
2023/05/17 09:22:04;;;;;;;0.40;0.40;;;;;;;13.16;80.08;99269.16;4863935;29;20496;-61
2023/05/17 09:24:33;;;;;;;0.50;0.50;;;;;;;13.09;80.16;99275.25;4862923;29;20061;-61
2023/05/17 09:27:04;;;;;;;0.30;0.30;;;;;;;13.05;80.78;99286.38;4864115;29;20080;-61
2023/05/17 09:29:35;;;;;;;0.38;0.38;;;;;;;12.97;80.97;99293.34;4863998;29;20499;-60
2023/05/17 09:32:16;;;;;;;0.40;0.40;;;;;;;12.91;81.79;99293.44;4864059;29;20405;-61
2023/05/17 09:34:47;;;;;;;0.40;0.40;;;;;;;12.82;82.04;99298.72;4862910;29;20049;-61
2023/05/17 09:37:18;;;;;;;0.40;0.40;;;;;;;12.77;82.80;99300.50;4863734;29;20133;-61
2023/05/17 09:39:48;;;;;;;0.45;0.45;;;;;;;12.76;83.40;99288.59;4863664;29;20041;-61
2023/05/17 09:42:17;;;;;;;0.40;0.40;;;;;;;12.74;84.03;99290.34;4863968;29;20054;-61
2023/05/17 09:44:53;;;;;;;0.40;0.40;;;;;;;12.64;84.25;99293.91;4863995;29;20064;-61
2023/05/17 09:47:24;;;;;;;0.65;0.65;;;;;;;12.58;84.83;99306.78;4863316;29;20051;-61
2023/05/17 09:49:53;;;;;;;0.30;0.30;;;;;;;12.57;85.12;99307.66;4864396;29;20050;-61
2023/05/17 09:52:25;;;;;;;0.40;0.40;;;;;;;12.58;85.26;99304.22;4863671;29;20526;-61
2023/05/17 09:54:56;;;;;;;0.52;0.52;;;;;;;12.56;85.71;99301.69;4863641;29;20073;-61
2023/05/17 09:57:27;;;;;;;0.40;0.40;;;;;;;12.54;85.75;99302.59;4863646;29;20064;-60
2023/05/17 09:59:57;;;;;;;0.52;0.52;;;;;;;12.55;86.12;99299.97;4863247;29;20121;-61
2023/05/17 10:02:28;;;;;;;0.40;0.40;;;;;;;12.57;86.46;99297.44;4863348;29;20057;-61
2023/05/17 10:04:58;;;;;;;0.43;0.43;;;;;;;12.54;86.52;99297.47;4863555;29;20121;-60
2023/05/17 10:07:29;;;;;;;31.63;2.25;;;;;;;12.50;87.02;99306.06;4863048;29;20049;-61
2023/05/17 10:09:58;;;;;;;0.40;0.40;;;;;;;12.51;86.94;99311.16;4863431;29;20125;-61
2023/05/17 10:12:29;;;;;;;0.40;0.40;;;;;;;12.57;87.07;99318.72;4861888;29;20077;-61
2023/05/17 10:14:58;;;;;;;0.40;0.40;;;;;;;12.58;87.22;99320.44;4863482;29;20580;-61
2023/05/17 10:17:28;;;;;;;0.40;0.40;;;;;;;12.59;87.09;99316.16;4863443;29;20057;-62
2023/05/17 10:19:58;;;;;;;0.30;0.30;;;;;;;12.58;87.02;99320.44;4862924;29;20137;-61
2023/05/17 10:22:29;;;;;;;;;;;;;;;12.60;86.99;99317.84;4862361;29;20057;-61
2023/05/17 10:24:58;;;;;;;0.40;0.40;;;;;;;12.54;86.83;99323.91;4863138;29;19928;-62
2023/05/17 10:27:28;;;;;;;;;;;;;;;12.57;86.80;99333.25;4863210;29;20061;-62
2023/05/17 10:29:58;;;;;;;0.40;0.40;;;;;;;12.54;87.11;99338.41;4862908;29;20031;-62
2023/05/17 10:32:29;;;;;;;0.98;0.95;;;;;;;12.51;86.82;99328.22;4862988;29;20060;-62
2023/05/17 10:34:59;;;;;;;0.40;0.40;;;;;;;12.48;86.75;99326.53;4862632;29;20065;-62
2023/05/17 10:37:42;;;;;;;0.43;0.43;;;;;;;12.48;86.80;99318.00;4862717;29;20050;-62
2023/05/17 10:40:13;;;;;;;0.40;0.40;;;;;;;12.42;86.92;99324.09;4862729;29;20049;-61
2023/05/17 10:42:44;;;;;;;0.60;0.60;;;;;;;12.38;87.03;99321.59;4862437;29;20076;-61
2023/05/17 10:45:14;;;;;;;1.85;0.98;;;;;;;12.40;87.02;99327.53;4862452;29;20073;-62
2023/05/17 10:47:44;;;;;;;0.50;0.50;;;;;;;12.41;86.93;99326.66;4862642;29;20065;-61
2023/05/17 10:50:13;;;;;;;0.40;0.40;;;;;;;12.35;86.84;99326.75;4862270;29;20067;-62
2023/05/17 10:52:48;;;;;;;0.88;0.88;;;;;;;12.43;86.95;99324.94;4862516;29;20041;-61
2023/05/17 10:55:21;;;;;;;0.40;0.40;;;;;;;12.44;87.38;99321.50;4862340;29;20059;-62
2023/05/17 10:58:12;;;;;;;0.52;0.50;;;;;;;12.42;87.26;99324.09;4862338;29;20491;-61
2023/05/17 11:00:41;;;;;;;0.20;0.20;;;;;;;12.39;87.26;99323.28;4862076;29;20049;-61
2023/05/17 11:03:15;;;;;;;0.30;0.30;;;;;;;12.35;87.22;99336.97;4862090;29;20049;-61
2023/05/17 11:06:06;;;;;;;0.30;0.30;;;;;;;12.37;87.42;99330.97;4862367;29;20053;-61
2023/05/17 11:09:08;;;;;;;0.30;0.30;;;;;;;12.37;87.20;99330.13;4862066;29;20057;-62
2023/05/17 11:11:37;;;;;;;0.60;0.60;;;;;;;12.39;87.37;99330.94;4862945;29;20064;-60
2023/05/17 11:14:07;;;;;;;0.30;0.30;;;;;;;12.36;87.29;99328.41;4861925;29;20057;-61
2023/05/17 11:16:37;;;;;;;0.45;0.45;;;;;;;12.37;87.41;99335.25;4861919;29;20061;-61
2023/05/17 11:19:08;;;;;;;0.73;0.65;;;;;;;12.41;87.24;99337.75;4861942;29;20057;-61
2023/05/17 11:21:46;;;;;;;0.30;0.30;;;;;;;12.43;87.36;99337.75;4861838;29;20503;-60
2023/05/17 11:24:25;;;;;;;0.40;0.40;;;;;;;12.39;87.29;99343.75;4862175;29;20057;-60
2023/05/17 11:26:55;;;;;;;0.75;0.70;;;;;;;12.43;87.43;99350.53;4862131;29;20053;-61
2023/05/17 11:29:28;;;;;;;;;;;;;;;12.44;87.55;99354.75;4861982;29;20512;-61
2023/05/17 11:31:57;;;;;;;0.40;0.40;;;;;;;12.39;87.78;99348.84;4862035;29;19928;-61
2023/05/17 11:34:27;;;;;;;0.40;0.40;;;;;;;12.36;87.50;99351.44;4861615;29;20038;-61
2023/05/17 11:36:56;;;;;;;0.40;0.40;;;;;;;12.12;87.65;99308.31;4861757;29;20499;-61
2023/05/17 11:39:27;;;;;;;0.50;0.50;;;;;;;12.31;87.98;99356.63;4861821;29;20461;-62
2023/05/17 11:41:57;;;;;;;0.30;0.30;;;;;;;12.32;87.67;99357.50;4861649;29;20128;-61
2023/05/17 11:44:30;;;;;;;0.40;0.40;;;;;;;12.28;88.00;99356.69;4861577;29;20053;-61
2023/05/17 11:47:03;;;;;;;1.20;1.10;;;;;;;12.34;87.74;99358.31;4861456;29;20522;-61
2023/05/17 11:49:34;;;;;;;0.85;0.85;;;;;;;12.37;87.79;99355.72;4861498;29;20082;-61
2023/05/17 11:52:05;;;;;;;0.40;0.40;;;;;;;12.36;87.87;99354.88;4861371;29;20077;-61